Time;durP1;ratioP1;P1;durP2;ratioP2;P2;SDS_P1;SDS_P2;PMS_P1;PMS_P2;Temp;Humidity;BMP_temperature;BMP_pressure;BME280_temperature;BME280_humidity;BME280_pressure;Samples;Min_cycle;Max_cycle;Signal;HPM_P1;HPM_P2
2023/05/20 00:01:55;;;;;;;2.63;1.17;;;20.30;1.00;;;;;;4841634;29;20115;-41
2023/05/20 00:04:21;;;;;;;7.35;2.38;;;20.30;1.00;;;;;;4841563;29;20038;-44
2023/05/20 00:06:48;;;;;;;7.00;1.45;;;20.30;1.00;;;;;;4841476;29;20092;-45
2023/05/20 00:09:18;;;;;;;6.72;2.15;;;20.30;1.00;;;;;;4841731;29;20041;-41
2023/05/20 00:11:45;;;;;;;6.85;1.70;;;20.30;1.00;;;;;;4841683;29;20106;-41
2023/05/20 00:14:13;;;;;;;3.78;1.92;;;20.30;1.00;;;;;;4836651;29;20058;-41
2023/05/20 00:16:40;;;;;;;4.13;1.50;;;20.30;1.00;;;;;;4839299;29;20061;-42
2023/05/20 00:19:07;;;;;;;7.75;1.75;;;20.30;1.00;;;;;;4840443;29;20065;-42
2023/05/20 00:21:33;;;;;;;5.82;1.80;;;20.30;1.00;;;;;;4841319;29;20124;-41
2023/05/20 00:24:00;;;;;;;10.13;1.55;;;20.20;1.00;;;;;;4833350;29;20046;-43
2023/05/20 00:26:28;;;;;;;7.60;2.47;;;20.30;1.00;;;;;;4833004;29;20091;-42
2023/05/20 00:28:56;;;;;;;4.65;1.75;;;20.20;1.00;;;;;;4841405;29;20042;-41
2023/05/20 00:31:23;;;;;;;5.45;1.33;;;20.20;1.00;;;;;;4840406;29;20065;-43
2023/05/20 00:33:50;;;;;;;2.42;1.30;;;20.20;1.00;;;;;;4839970;29;20098;-41
2023/05/20 00:36:16;;;;;;;4.80;2.40;;;20.20;1.00;;;;;;4841632;29;20046;-41
2023/05/20 00:38:43;;;;;;;3.72;1.23;;;20.20;1.00;;;;;;4839742;29;20502;-41
2023/05/20 00:41:11;;;;;;;6.30;1.35;;;20.20;1.00;;;;;;4841453;29;20042;-41
2023/05/20 00:43:37;;;;;;;4.03;1.17;;;20.20;1.00;;;;;;4839893;29;20053;-42
2023/05/20 00:46:04;;;;;;;5.90;1.58;;;20.20;1.00;;;;;;4839972;29;20046;-41
2023/05/20 00:48:42;;;;;;;4.32;1.50;;;20.20;1.00;;;;;;4839979;29;20068;-41
2023/05/20 00:51:13;;;;;;;4.22;1.50;;;20.20;1.00;;;;;;4840363;29;20505;-43
2023/05/20 00:53:41;;;;;;;2.63;1.33;;;20.20;1.00;;;;;;4837293;29;20464;-43
2023/05/20 00:56:08;;;;;;;4.22;1.30;;;20.20;1.00;;;;;;4835170;29;20066;-41
2023/05/20 00:58:36;;;;;;;5.20;2.05;;;20.10;1.00;;;;;;4833556;29;20061;-41
2023/05/20 01:01:04;;;;;;;2.13;1.15;;;20.10;1.00;;;;;;4841037;29;20054;-41
2023/05/20 01:03:32;;;;;;;5.13;1.50;;;20.10;1.00;;;;;;4841092;29;20050;-41
2023/05/20 01:06:00;;;;;;;5.68;1.98;;;20.10;1.00;;;;;;4841238;29;20561;-41
2023/05/20 01:08:27;;;;;;;4.90;1.23;;;20.10;1.00;;;;;;4841194;29;20443;-41
2023/05/20 01:11:07;;;;;;;6.07;1.63;;;20.10;1.00;;;;;;4841202;29;20069;-41
2023/05/20 01:13:50;;;;;;;2.42;1.52;;;20.10;1.00;;;;;;4839625;29;20490;-41
2023/05/20 01:16:18;;;;;;;2.28;1.17;;;20.10;1.00;;;;;;4827295;29;20053;-41
2023/05/20 01:18:47;;;;;;;4.53;1.23;;;20.10;1.00;;;;;;4839073;29;20410;-41
2023/05/20 01:21:16;;;;;;;5.68;1.33;;;20.10;1.00;;;;;;4841033;29;20041;-41
2023/05/20 01:23:43;;;;;;;5.95;1.10;;;20.10;1.00;;;;;;4834980;29;20038;-41
2023/05/20 01:26:12;;;;;;;3.55;1.60;;;20.10;1.00;;;;;;4833237;29;20247;-41
2023/05/20 01:28:42;;;;;;;4.80;1.55;;;20.10;1.00;;;;;;4839376;29;20046;-40
2023/05/20 01:31:31;;;;;;;3.75;1.90;;;20.10;1.00;;;;;;4835697;29;20058;-41
2023/05/20 01:33:59;;;;;;;6.90;2.17;;;20.10;1.00;;;;;;4840397;29;20124;-41
2023/05/20 01:36:28;;;;;;;4.00;1.13;;;20.10;1.00;;;;;;4840860;29;20113;-41
2023/05/20 01:38:56;;;;;;;6.82;1.42;;;20.10;1.00;;;;;;4840978;29;20094;-41
2023/05/20 01:41:25;;;;;;;3.05;2.08;;;20.00;1.00;;;;;;4841185;29;20451;-42
2023/05/20 01:43:54;;;;;;;2.30;1.40;;;20.00;1.00;;;;;;4839406;29;20052;-42
2023/05/20 01:46:21;;;;;;;3.97;1.90;;;20.00;1.00;;;;;;4827251;29;20125;-42
2023/05/20 01:48:48;;;;;;;5.22;2.35;;;20.00;1.00;;;;;;4842679;29;20081;-42
2023/05/20 01:51:15;;;;;;;3.65;2.03;;;20.00;1.00;;;;;;4842952;29;20049;-42
2023/05/20 01:53:42;;;;;;;7.28;2.42;;;20.00;1.00;;;;;;4843974;29;20459;-41
2023/05/20 01:56:09;;;;;;;6.13;1.70;;;20.00;1.00;;;;;;4833102;29;20077;-41
2023/05/20 01:58:36;;;;;;;6.13;1.38;;;20.00;1.00;;;;;;4833724;29;20133;-41
2023/05/20 02:01:03;;;;;;;8.88;1.38;;;20.00;1.00;;;;;;4841571;29;20060;-41
2023/05/20 02:03:29;;;;;;;2.55;1.40;;;20.00;1.00;;;;;;4842480;29;20457;-41
2023/05/20 02:05:58;;;;;;;2.15;1.05;;;20.00;1.00;;;;;;4843594;29;20042;-42
2023/05/20 02:08:25;;;;;;;4.68;1.48;;;20.00;1.00;;;;;;4842348;29;20499;-41
2023/05/20 02:10:52;;;;;;;1.95;1.17;;;20.00;1.00;;;;;;4834819;29;20083;-41
2023/05/20 02:13:19;;;;;;;5.35;2.33;;;19.90;1.00;;;;;;4843704;29;20034;-41
2023/05/20 02:15:47;;;;;;;7.43;1.80;;;19.90;1.00;;;;;;4842366;29;20046;-41
2023/05/20 02:18:17;;;;;;;3.22;1.55;;;20.00;1.00;;;;;;4843560;29;20101;-42
2023/05/20 02:20:44;;;;;;;4.15;1.25;;;19.90;1.00;;;;;;4842141;29;20056;-42
2023/05/20 02:23:11;;;;;;;3.58;1.48;;;20.00;1.00;;;;;;4843368;29;20444;-41
2023/05/20 02:25:38;;;;;;;4.65;1.00;;;19.90;1.00;;;;;;4834440;29;20082;-41
2023/05/20 02:28:09;;;;;;;4.57;1.38;;;19.90;1.00;;;;;;4839098;29;20086;-41
2023/05/20 02:30:37;;;;;;;5.47;1.42;;;19.90;1.00;;;;;;4838393;29;20054;-41
2023/05/20 02:33:05;;;;;;;4.78;1.92;;;19.90;1.00;;;;;;4841814;29;20049;-41
2023/05/20 02:35:32;;;;;;;5.65;1.38;;;19.90;1.00;;;;;;4841819;29;20057;-41
2023/05/20 02:37:59;;;;;;;3.33;1.30;;;19.90;1.00;;;;;;4841659;29;20056;-42
2023/05/20 02:40:26;;;;;;;3.45;1.42;;;19.90;1.00;;;;;;4842023;29;20088;-41
2023/05/20 02:42:53;;;;;;;8.55;2.17;;;19.90;1.00;;;;;;4841762;29;20042;-42
2023/05/20 02:45:20;;;;;;;1.50;0.77;;;19.90;1.00;;;;;;4841629;29;20454;-42
2023/05/20 02:47:47;;;;;;;7.07;1.42;;;19.90;1.00;;;;;;4841589;29;20514;-43
2023/05/20 02:50:14;;;;;;;3.88;1.58;;;19.90;1.00;;;;;;4843258;29;20096;-41
2023/05/20 02:52:41;;;;;;;5.90;2.08;;;19.80;1.00;;;;;;4841630;29;20061;-41
2023/05/20 02:55:08;;;;;;;4.72;1.88;;;19.90;1.00;;;;;;4842944;29;20045;-59
2023/05/20 02:57:37;;;;;;;2.72;1.52;;;19.80;1.00;;;;;;4826143;29;20042;-41
2023/05/20 03:00:09;;;;;;;4.20;1.58;;;19.90;1.00;;;;;;4836645;29;20050;-43
2023/05/20 03:02:36;;;;;;;3.45;1.10;;;19.90;1.00;;;;;;4839000;29;20132;-41
2023/05/20 03:05:04;;;;;;;2.30;1.50;;;19.90;1.00;;;;;;4840788;29;20038;-41
2023/05/20 03:07:35;;;;;;;5.50;1.75;;;19.80;1.00;;;;;;4841321;29;20133;-41
2023/05/20 03:10:02;;;;;;;3.78;1.50;;;19.80;1.00;;;;;;4841408;29;20121;-41
2023/05/20 03:12:29;;;;;;;2.92;1.50;;;19.80;1.00;;;;;;4842593;29;20423;-41
2023/05/20 03:14:57;;;;;;;2.65;1.30;;;19.80;1.00;;;;;;4841127;29;20145;-42
2023/05/20 03:17:24;;;;;;;3.65;1.65;;;19.80;1.00;;;;;;4841189;29;20136;-41
2023/05/20 03:19:51;;;;;;;2.50;1.20;;;19.80;1.00;;;;;;4842534;29;20069;-41
2023/05/20 03:22:18;;;;;;;5.20;1.45;;;19.80;1.00;;;;;;4842392;29;20094;-41
2023/05/20 03:24:45;;;;;;;2.75;1.48;;;19.80;1.00;;;;;;4833430;29;20506;-42
2023/05/20 03:27:12;;;;;;;5.95;1.48;;;19.80;1.00;;;;;;4841062;29;20103;-41
2023/05/20 03:29:39;;;;;;;3.47;1.33;;;19.80;1.00;;;;;;4829891;29;20137;-41
2023/05/20 03:32:07;;;;;;;5.43;1.65;;;19.80;1.00;;;;;;4834640;29;20050;-41
2023/05/20 03:34:37;;;;;;;2.53;1.23;;;19.80;1.00;;;;;;4835668;29;20061;-41
2023/05/20 03:37:04;;;;;;;6.28;1.50;;;19.80;1.00;;;;;;4839242;29;20049;-41
2023/05/20 03:39:31;;;;;;;5.07;1.70;;;19.70;1.00;;;;;;4841025;29;20375;-41
2023/05/20 03:41:58;;;;;;;4.57;1.70;;;19.70;1.00;;;;;;4827066;29;20038;-41
2023/05/20 03:44:25;;;;;;;2.92;1.40;;;19.80;1.00;;;;;;4840067;29;20041;-41
2023/05/20 03:46:53;;;;;;;2.90;1.80;;;19.70;1.00;;;;;;4840480;29;20058;-41
2023/05/20 03:49:20;;;;;;;3.97;1.77;;;19.70;1.00;;;;;;4840620;29;20038;-41
2023/05/20 03:51:47;;;;;;;3.53;1.42;;;19.70;1.00;;;;;;4840484;29;20073;-41
2023/05/20 03:54:16;;;;;;;4.82;1.67;;;19.70;1.00;;;;;;4825685;29;20060;-41
2023/05/20 03:56:48;;;;;;;4.60;1.55;;;19.70;1.00;;;;;;4840317;29;20152;-41
2023/05/20 03:59:15;;;;;;;4.45;1.30;;;19.70;1.00;;;;;;4834992;29;20136;-41
2023/05/20 04:01:41;;;;;;;4.90;1.65;;;19.70;1.00;;;;;;4823925;29;20153;-41
2023/05/20 04:04:09;;;;;;;4.28;1.85;;;19.70;1.00;;;;;;4833968;29;20532;-41
2023/05/20 04:06:36;;;;;;;4.13;1.50;;;19.70;1.00;;;;;;4834928;29;20525;-41
2023/05/20 04:09:03;;;;;;;4.13;1.38;;;19.70;1.00;;;;;;4839712;29;20042;-42
2023/05/20 04:11:30;;;;;;;4.20;1.88;;;19.70;1.00;;;;;;4841666;29;20053;-41
2023/05/20 04:13:59;;;;;;;4.72;1.50;;;19.70;1.00;;;;;;4838962;29;20081;-41
2023/05/20 04:16:25;;;;;;;3.88;1.30;;;19.60;1.00;;;;;;4834583;29;20136;-41
2023/05/20 04:18:52;;;;;;;4.13;1.60;;;19.70;1.00;;;;;;4841302;29;20045;-43
2023/05/20 04:21:19;;;;;;;3.65;1.33;;;19.70;1.00;;;;;;4840253;29;20140;-42
2023/05/20 04:23:47;;;;;;;3.60;1.50;;;19.70;1.00;;;;;;4839863;29;20050;-41
2023/05/20 04:26:14;;;;;;;4.90;1.85;;;19.60;1.00;;;;;;4833451;29;20046;-43
2023/05/20 04:28:41;;;;;;;3.92;1.98;;;19.70;1.00;;;;;;4840123;29;20096;-41
2023/05/20 04:31:07;;;;;;;3.28;1.55;;;19.60;1.00;;;;;;4841343;29;20050;-41
2023/05/20 04:33:38;;;;;;;4.10;1.60;;;19.60;1.00;;;;;;4839978;29;20092;-41
2023/05/20 04:36:08;;;;;;;3.95;1.40;;;19.60;1.00;;;;;;4839949;29;20140;-42
2023/05/20 04:38:36;;;;;;;4.05;1.48;;;19.60;1.00;;;;;;4839873;29;20078;-41
2023/05/20 04:41:03;;;;;;;4.03;1.48;;;19.60;1.00;;;;;;4840219;29;20456;-41
2023/05/20 04:43:30;;;;;;;4.25;2.10;;;19.60;1.00;;;;;;4834331;29;20050;-41
2023/05/20 04:45:58;;;;;;;3.83;1.08;;;19.60;1.00;;;;;;4830393;29;20106;-41
2023/05/20 04:48:26;;;;;;;5.47;1.45;;;19.60;1.00;;;;;;4839877;29;20045;-42
2023/05/20 04:50:53;;;;;;;4.13;1.88;;;19.60;1.00;;;;;;4824750;29;20141;-42
2023/05/20 04:53:22;;;;;;;3.70;1.85;;;19.60;1.00;;;;;;4839667;29;20102;-41
2023/05/20 04:55:53;;;;;;;5.65;2.03;;;19.60;1.00;;;;;;4839752;29;20046;-41
2023/05/20 04:58:23;;;;;;;6.30;1.65;;;19.60;1.00;;;;;;4839617;29;20506;-41
2023/05/20 05:00:50;;;;;;;2.50;1.17;;;19.60;1.00;;;;;;4824776;29;20058;-42
2023/05/20 05:03:17;;;;;;;3.17;1.65;;;19.60;1.00;;;;;;4824501;29;20052;-41
2023/05/20 05:05:44;;;;;;;6.22;2.75;;;19.60;1.00;;;;;;4833490;29;20436;-42
2023/05/20 05:08:11;;;;;;;3.83;1.42;;;19.60;1.00;;;;;;4839443;29;20070;-41
2023/05/20 05:10:44;;;;;;;3.60;1.55;;;19.60;1.00;;;;;;4839876;29;20540;-43
2023/05/20 05:13:11;;;;;;;4.80;1.33;;;19.60;1.00;;;;;;4832229;29;20050;-42
2023/05/20 05:15:38;;;;;;;3.45;1.75;;;19.60;1.00;;;;;;4839603;29;20057;-42
2023/05/20 05:18:05;;;;;;;3.80;1.35;;;19.60;1.00;;;;;;4838876;29;20136;-43
2023/05/20 05:20:33;;;;;;;4.10;1.17;;;19.60;1.00;;;;;;4836470;29;20145;-41
2023/05/20 05:23:00;;;;;;;2.45;1.10;;;19.60;1.00;;;;;;4844589;29;20111;-42
2023/05/20 05:25:27;;;;;;;2.40;1.05;;;19.60;1.00;;;;;;4838695;29;20054;-42
2023/05/20 05:27:57;;;;;;;2.58;1.25;;;19.60;1.00;;;;;;4842951;29;20112;-42
2023/05/20 05:30:24;;;;;;;3.83;1.08;;;19.60;1.00;;;;;;4842395;29;20119;-58
2023/05/20 05:32:51;;;;;;;2.60;1.40;;;19.60;1.00;;;;;;4826364;29;20111;-43
2023/05/20 05:35:18;;;;;;;3.17;1.08;;;19.60;1.00;;;;;;4841480;29;20050;-41
2023/05/20 05:37:45;;;;;;;3.28;1.15;;;19.60;1.00;;;;;;4838883;29;20054;-42
2023/05/20 05:40:12;;;;;;;4.32;1.63;;;19.60;1.00;;;;;;4843096;29;20045;-43
2023/05/20 05:42:39;;;;;;;5.43;1.27;;;19.60;1.00;;;;;;4842557;29;20053;-44
2023/05/20 05:45:08;;;;;;;1.67;0.75;;;19.60;1.00;;;;;;4842777;29;20057;-41
2023/05/20 05:47:35;;;;;;;1.95;1.13;;;19.60;1.00;;;;;;4843921;29;20073;-41
2023/05/20 05:50:03;;;;;;;4.35;0.95;;;19.60;1.00;;;;;;4842762;29;20053;-42
2023/05/20 05:52:32;;;;;;;5.75;1.83;;;19.70;1.00;;;;;;4842423;29;20049;-42
2023/05/20 05:55:01;;;;;;;3.85;0.98;;;19.70;1.00;;;;;;4842454;29;20137;-41
2023/05/20 05:57:29;;;;;;;3.80;1.20;;;19.70;1.00;;;;;;4842248;29;20065;-42
2023/05/20 05:59:57;;;;;;;5.50;1.35;;;19.70;1.00;;;;;;4842310;29;20532;-42
2023/05/20 06:02:24;;;;;;;3.13;1.23;;;19.70;1.00;;;;;;4842112;29;20048;-42
2023/05/20 06:04:51;;;;;;;3.78;1.17;;;19.80;1.00;;;;;;4827020;29;20046;-42
2023/05/20 06:07:18;;;;;;;3.75;1.50;;;19.70;1.00;;;;;;4828507;29;20402;-42
2023/05/20 06:09:45;;;;;;;3.00;0.80;;;19.80;1.00;;;;;;4842263;29;20046;-43
2023/05/20 06:12:12;;;;;;;4.75;1.33;;;19.80;1.00;;;;;;4842028;29;20057;-43
2023/05/20 06:14:39;;;;;;;2.58;0.93;;;19.80;1.00;;;;;;4842140;29;20513;-42
2023/05/20 06:17:06;;;;;;;5.00;1.10;;;19.80;1.00;;;;;;4836054;29;20077;-42
2023/05/20 06:19:33;;;;;;;1.98;0.80;;;19.80;1.00;;;;;;4828119;29;20050;-42
2023/05/20 06:22:02;;;;;;;5.53;1.40;;;19.80;1.00;;;;;;4842086;29;20054;-42
2023/05/20 06:24:29;;;;;;;4.68;1.48;;;19.80;1.00;;;;;;4835088;29;20052;-43
2023/05/20 06:26:55;;;;;;;3.25;1.55;;;19.90;1.00;;;;;;4839389;29;20073;-42
2023/05/20 06:29:23;;;;;;;4.57;1.90;;;19.80;1.00;;;;;;4831254;29;20049;-42
2023/05/20 06:31:49;;;;;;;5.45;1.38;;;19.90;1.00;;;;;;4834851;29;20058;-42
2023/05/20 06:34:16;;;;;;;7.15;1.02;;;19.90;1.00;;;;;;4837411;29;20046;-42
2023/05/20 06:36:43;;;;;;;7.18;1.40;;;19.90;1.00;;;;;;4831998;29;20103;-43
2023/05/20 06:39:11;;;;;;;3.15;1.20;;;19.90;1.00;;;;;;4834663;29;20042;-42
2023/05/20 06:41:39;;;;;;;3.10;1.52;;;19.90;1.00;;;;;;4833381;29;20076;-42
2023/05/20 06:44:09;;;;;;;3.65;1.15;;;19.90;1.00;;;;;;4832716;29;20062;-42
2023/05/20 06:46:56;;;;;;;4.10;1.30;;;19.90;1.00;;;;;;4836932;29;20498;-42
2023/05/20 06:49:23;;;;;;;11.30;1.50;;;20.00;1.00;;;;;;4838458;29;20434;-42
2023/05/20 06:51:50;;;;;;;7.03;1.75;;;19.90;1.00;;;;;;4839981;29;20042;-42
2023/05/20 06:54:17;;;;;;;6.20;1.00;;;19.90;1.00;;;;;;4826779;29;20061;-42
2023/05/20 06:56:45;;;;;;;4.22;0.85;;;20.00;1.00;;;;;;4841588;29;20501;-42
2023/05/20 06:59:14;;;;;;;7.22;0.95;;;20.00;1.00;;;;;;4837421;29;20046;-42
2023/05/20 07:01:41;;;;;;;4.85;0.88;;;20.00;1.00;;;;;;4836674;29;20050;-42
2023/05/20 07:04:08;;;;;;;3.63;1.17;;;20.00;1.00;;;;;;4842505;29;20050;-42
2023/05/20 07:06:36;;;;;;;6.72;1.58;;;20.00;1.00;;;;;;4841225;29;20174;-42
2023/05/20 07:09:02;;;;;;;4.88;1.30;;;20.00;1.00;;;;;;4841393;29;20050;-42
2023/05/20 07:11:31;;;;;;;4.20;1.52;;;20.00;1.00;;;;;;4841349;29;20046;-42
2023/05/20 07:13:58;;;;;;;4.57;1.30;;;20.00;1.00;;;;;;4841160;29;20054;-42
2023/05/20 07:16:26;;;;;;;6.13;1.30;;;20.10;1.00;;;;;;4833600;29;20057;-42
2023/05/20 07:18:54;;;;;;;4.22;1.45;;;20.10;1.00;;;;;;4841112;29;20058;-42
2023/05/20 07:21:21;;;;;;;5.15;1.00;;;20.10;1.00;;;;;;4841269;29;20110;-42
2023/05/20 07:23:55;;;;;;;3.53;1.02;;;20.10;1.00;;;;;;4841154;29;20045;-42
2023/05/20 07:26:22;;;;;;;4.13;0.95;;;20.10;1.00;;;;;;4841387;29;20456;-42
2023/05/20 07:28:50;;;;;;;3.65;1.38;;;20.10;1.00;;;;;;4836205;29;20240;-42
2023/05/20 07:31:17;;;;;;;4.45;1.40;;;20.10;1.00;;;;;;4841813;29;20427;-42
2023/05/20 07:33:44;;;;;;;4.60;2.08;;;20.10;1.00;;;;;;4835072;29;20054;-42
2023/05/20 07:36:11;;;;;;;3.42;1.10;;;20.10;1.00;;;;;;4832243;29;20050;-42
2023/05/20 07:38:40;;;;;;;3.95;1.30;;;20.10;1.00;;;;;;4840711;29;20560;-42
2023/05/20 07:41:22;;;;;;;2.88;1.52;;;20.10;1.00;;;;;;4841112;29;20049;-42
2023/05/20 07:43:49;;;;;;;2.25;1.20;;;20.10;1.00;;;;;;4841590;29;20116;-43
2023/05/20 07:46:17;;;;;;;3.72;1.27;;;20.10;1.00;;;;;;4840505;29;20038;-42
2023/05/20 07:48:46;;;;;;;4.18;1.38;;;20.20;1.00;;;;;;4840639;29;20421;-42
2023/05/20 07:51:14;;;;;;;7.18;1.42;;;20.10;1.00;;;;;;4833319;29;20129;-42
2023/05/20 07:53:40;;;;;;;6.97;1.20;;;20.10;1.00;;;;;;4841769;29;20057;-43
2023/05/20 07:56:07;;;;;;;2.00;1.08;;;20.10;1.00;;;;;;4840959;29;20054;-42
2023/05/20 07:58:36;;;;;;;4.20;1.63;;;20.10;1.00;;;;;;4840406;29;20062;-42
2023/05/20 08:01:03;;;;;;;4.50;1.55;;;20.10;1.00;;;;;;4840814;29;20046;-42
2023/05/20 08:03:30;;;;;;;3.80;1.80;;;20.10;1.00;;;;;;4840282;29;20054;-42
2023/05/20 08:06:05;;;;;;;3.22;0.88;;;20.10;1.00;;;;;;4841401;29;20070;-42
2023/05/20 08:08:32;;;;;;;4.57;1.52;;;20.10;1.00;;;;;;4840383;29;20046;-42
2023/05/20 08:11:06;;;;;;;2.78;1.10;;;20.10;1.00;;;;;;4826216;29;20077;-42
2023/05/20 08:13:33;;;;;;;4.38;1.35;;;20.10;1.00;;;;;;4828886;29;20079;-42
2023/05/20 08:16:07;;;;;;;3.65;1.98;;;20.10;1.00;;;;;;4838880;29;20042;-43
2023/05/20 08:18:37;;;;;;;5.85;1.00;;;20.10;1.00;;;;;;4831288;29;20046;-43
2023/05/20 08:21:08;;;;;;;2.20;0.90;;;20.10;1.00;;;;;;4823376;29;20559;-42
2023/05/20 08:23:35;;;;;;;5.32;0.95;;;20.20;1.00;;;;;;4822585;29;20038;-42
2023/05/20 08:26:06;;;;;;;2.58;1.10;;;20.20;1.00;;;;;;4823295;29;20050;-42
2023/05/20 08:28:36;;;;;;;3.72;0.93;;;20.20;1.00;;;;;;4825577;29;20577;-45
2023/05/20 08:31:03;;;;;;;3.22;1.00;;;20.20;1.00;;;;;;4838762;29;20038;-42
2023/05/20 08:33:31;;;;;;;3.00;1.00;;;20.20;1.00;;;;;;4831911;29;20046;-42
2023/05/20 08:35:58;;;;;;;3.70;1.02;;;20.20;1.00;;;;;;4838075;29;20073;-41
2023/05/20 08:38:25;;;;;;;4.47;1.00;;;20.20;1.00;;;;;;4840984;29;20050;-42
2023/05/20 08:40:56;;;;;;;8.88;1.23;;;20.20;1.00;;;;;;4843668;29;20077;-42
2023/05/20 08:43:25;;;;;;;6.35;1.05;;;20.30;1.00;;;;;;4837267;29;20038;-42
2023/05/20 08:45:52;;;;;;;4.22;1.45;;;20.30;1.00;;;;;;4843094;29;20071;-42
2023/05/20 08:48:24;;;;;;;3.78;1.17;;;20.30;1.00;;;;;;4842767;29;20083;-42
2023/05/20 08:50:51;;;;;;;6.85;0.77;;;20.30;1.00;;;;;;4838318;29;20057;-41
2023/05/20 08:53:20;;;;;;;4.53;1.58;;;20.30;1.00;;;;;;4841727;29;20050;-41
2023/05/20 08:55:56;;;;;;;4.03;1.02;;;20.40;1.00;;;;;;4836148;29;20522;-41
2023/05/20 08:58:28;;;;;;;2.10;0.88;;;20.40;1.00;;;;;;4848871;29;20058;-41
2023/05/20 09:00:55;;;;;;;6.38;0.95;;;20.40;1.00;;;;;;4848541;29;20383;-42
2023/05/20 09:03:23;;;;;;;1.45;0.80;;;20.40;1.00;;;;;;4847914;29;20050;-42
2023/05/20 09:05:50;;;;;;;3.38;1.33;;;20.40;1.00;;;;;;4848076;29;20052;-41
2023/05/20 09:08:17;;;;;;;4.18;1.13;;;20.50;1.00;;;;;;4839857;29;20038;-42
2023/05/20 09:10:43;;;;;;;2.53;0.82;;;20.50;1.00;;;;;;4847520;29;20070;-41
2023/05/20 09:13:10;;;;;;;1.60;0.80;;;20.50;1.00;;;;;;4847126;29;20494;-43
2023/05/20 09:15:37;;;;;;;2.50;0.85;;;20.50;1.00;;;;;;4846789;29;20049;-42
2023/05/20 09:18:06;;;;;;;2.15;1.00;;;20.50;1.00;;;;;;4844149;29;20076;-44
2023/05/20 09:20:36;;;;;;;2.67;0.88;;;20.60;1.00;;;;;;4844592;29;20084;-41
2023/05/20 09:23:08;;;;;;;4.22;1.17;;;20.60;1.00;;;;;;4844697;29;20118;-42
2023/05/20 09:25:36;;;;;;;3.58;1.13;;;20.60;1.00;;;;;;4844321;29;20041;-41
2023/05/20 09:28:07;;;;;;;3.78;1.00;;;20.60;1.00;;;;;;4821355;29;20471;-42
2023/05/20 09:30:34;;;;;;;3.33;0.80;;;20.60;1.00;;;;;;4821854;29;20042;-43
2023/05/20 09:33:03;;;;;;;1.75;0.63;;;20.60;1.00;;;;;;4832717;29;20062;-42
2023/05/20 09:35:37;;;;;;;2.60;0.70;;;20.70;1.00;;;;;;4816879;29;20055;-42
2023/05/20 09:38:08;;;;;;;2.10;1.00;;;20.70;1.00;;;;;;4820528;29;20133;-41
2023/05/20 09:40:39;;;;;;;2.53;1.05;;;20.70;1.00;;;;;;4823238;29;20047;-41
2023/05/20 09:43:06;;;;;;;4.22;1.20;;;20.70;1.00;;;;;;4828968;29;20525;-42
2023/05/20 09:45:33;;;;;;;4.78;1.13;;;20.70;1.00;;;;;;4835262;29;20057;-42
2023/05/20 09:48:02;;;;;;;3.33;0.93;;;20.70;1.00;;;;;;4826360;29;20039;-42
2023/05/20 09:50:30;;;;;;;4.28;1.17;;;20.70;1.00;;;;;;4827514;29;20046;-42
2023/05/20 09:53:02;;;;;;;3.00;0.93;;;20.80;1.00;;;;;;4828189;29;20380;-41
2023/05/20 09:55:30;;;;;;;9.18;2.08;;;20.70;1.00;;;;;;4810796;29;20046;-42
2023/05/20 09:58:01;;;;;;;6.43;1.13;;;20.70;1.00;;;;;;4823139;29;20491;-43
2023/05/20 10:00:28;;;;;;;7.57;1.05;;;20.70;1.00;;;;;;4826227;29;20468;-43
2023/05/20 10:02:55;;;;;;;5.82;1.40;;;20.70;1.00;;;;;;4829307;29;20079;-42
2023/05/20 10:05:29;;;;;;;3.33;0.90;;;20.70;1.00;;;;;;4835238;29;20064;-41
2023/05/20 10:08:04;;;;;;;3.58;1.45;;;20.70;1.00;;;;;;4839353;29;20053;-45
2023/05/20 10:11:11;;;;;;;7.25;1.30;;;20.70;1.00;;;;;;4828649;29;20094;-60
2023/05/20 10:14:00;;;;;;;8.15;1.35;;;20.70;1.00;;;;;;4833525;29;20103;-47
2023/05/20 10:17:07;;;;;;;6.30;1.95;;;20.70;1.00;;;;;;4835205;29;20054;-47
2023/05/20 10:19:35;;;;;;;5.20;1.77;;;20.70;1.00;;;;;;4842232;29;20053;-46
2023/05/20 10:22:06;;;;;;;8.43;1.80;;;20.70;1.00;;;;;;4843520;29;20079;-46
2023/05/20 10:24:40;;;;;;;5.07;1.42;;;20.70;1.00;;;;;;4820641;29;20136;-47
2023/05/20 10:27:15;;;;;;;5.45;0.82;;;20.70;1.00;;;;;;4834075;29;20050;-46
2023/05/20 10:29:43;;;;;;;2.72;0.98;;;20.70;1.00;;;;;;4831145;29;20042;-46
2023/05/20 10:32:10;;;;;;;3.63;0.90;;;20.80;1.00;;;;;;4831386;29;20058;-46
2023/05/20 10:34:49;;;;;;;4.45;1.25;;;20.80;1.00;;;;;;4823839;29;20066;-46
2023/05/20 10:37:26;;;;;;;3.78;0.93;;;20.80;1.00;;;;;;4826043;29;20509;-46
2023/05/20 10:40:11;;;;;;;2.45;0.90;;;20.80;1.00;;;;;;4823626;29;20047;-46
2023/05/20 10:42:38;;;;;;;4.38;1.27;;;20.80;1.00;;;;;;4820785;29;20059;-58
2023/05/20 10:45:06;;;;;;;3.33;0.63;;;20.80;1.00;;;;;;4821880;29;20122;-49
2023/05/20 10:47:34;;;;;;;9.70;0.93;;;20.80;1.00;;;;;;4823253;29;20038;-46
2023/05/20 10:50:03;;;;;;;4.93;1.20;;;20.80;1.00;;;;;;4829481;29;20038;-46
2023/05/20 10:52:35;;;;;;;4.13;0.98;;;20.80;1.00;;;;;;4842891;29;20494;-46
2023/05/20 10:55:03;;;;;;;7.90;1.48;;;20.80;1.00;;;;;;4836600;29;20291;-47
2023/05/20 10:57:33;;;;;;;2.67;1.02;;;20.80;1.00;;;;;;4826974;29;20394;-47
2023/05/20 11:00:00;;;;;;;4.80;1.00;;;20.80;1.00;;;;;;4841799;29;20038;-47
2023/05/20 11:02:27;;;;;;;4.57;1.35;;;20.80;1.00;;;;;;4842788;29;20049;-47
2023/05/20 11:04:58;;;;;;;3.60;0.98;;;20.80;1.00;;;;;;4837008;29;20551;-47
2023/05/20 11:07:29;;;;;;;5.10;0.80;;;20.80;1.00;;;;;;4831307;29;20070;-46
2023/05/20 11:09:57;;;;;;;4.65;1.02;;;20.80;1.00;;;;;;4830043;29;20054;-46
2023/05/20 11:12:26;;;;;;;2.67;0.82;;;20.80;1.00;;;;;;4834032;29;20116;-48
2023/05/20 11:14:53;;;;;;;4.10;0.98;;;20.80;1.00;;;;;;4835921;29;20112;-45
2023/05/20 11:17:20;;;;;;;5.18;0.95;;;20.80;1.00;;;;;;4839209;29;20124;-50
2023/05/20 11:19:47;;;;;;;3.85;1.10;;;20.90;1.00;;;;;;4838676;29;20065;-47
2023/05/20 11:22:14;;;;;;;5.07;0.70;;;20.80;1.00;;;;;;4826722;29;20047;-47
2023/05/20 11:24:41;;;;;;;5.57;0.75;;;20.80;1.00;;;;;;4821226;29;20046;-47
2023/05/20 11:27:08;;;;;;;3.80;0.85;;;20.80;1.00;;;;;;4821322;29;20040;-49
2023/05/20 11:29:35;;;;;;;4.13;0.63;;;20.80;1.00;;;;;;4815819;29;20053;-46
2023/05/20 11:32:02;;;;;;;3.35;0.82;;;20.90;1.00;;;;;;4822745;29;20050;-46
2023/05/20 11:34:35;;;;;;;3.20;0.90;;;20.80;1.00;;;;;;4826949;29;20053;-46
2023/05/20 11:37:05;;;;;;;2.80;0.75;;;20.80;1.00;;;;;;4823509;29;20045;-46
2023/05/20 11:39:38;;;;;;;3.60;0.77;;;20.80;1.00;;;;;;5108573;27;20132;-45
2023/05/20 11:42:05;;;;;;;5.95;1.02;;;20.80;1.00;;;;;;5091556;28;20068;-45
2023/05/20 11:44:32;;;;;;;4.60;0.80;;;20.90;1.00;;;;;;5078783;28;20388;-45
2023/05/20 11:47:02;;;;;;;4.28;1.30;;;20.80;1.00;;;;;;5074221;28;20094;-46
2023/05/20 11:49:29;;;;;;;3.83;0.80;;;20.80;1.00;;;;;;5069855;28;20049;-45
2023/05/20 11:51:57;;;;;;;2.88;0.65;;;20.80;1.00;;;;;;5068745;28;20064;-45
2023/05/20 11:54:25;;;;;;;5.18;1.25;;;20.80;1.00;;;;;;5068665;28;20087;-46
2023/05/20 11:56:53;;;;;;;3.60;1.73;;;20.80;1.00;;;;;;5068528;28;20041;-49
2023/05/20 11:59:23;;;;;;;4.10;1.30;;;20.80;1.00;;;;;;5068918;28;20128;-49
2023/05/20 12:01:50;;;;;;;4.28;0.82;;;20.80;1.00;;;;;;5068814;28;20033;-50
2023/05/20 12:04:17;;;;;;;7.85;2.72;;;20.80;1.00;;;;;;5069966;28;20041;-46
2023/05/20 12:06:44;;;;;;;5.00;1.05;;;20.80;1.00;;;;;;5068975;28;20040;-51
2023/05/20 12:09:12;;;;;;;4.88;0.82;;;20.80;1.00;;;;;;5063773;28;20422;-46
2023/05/20 12:11:40;;;;;;;6.68;1.15;;;20.80;1.00;;;;;;5059928;28;20392;-49
2023/05/20 12:14:08;;;;;;;7.18;1.00;;;20.80;1.00;;;;;;5068105;28;20112;-55
2023/05/20 12:16:36;;;;;;;2.05;0.90;;;20.80;1.00;;;;;;5067904;28;20124;-46
2023/05/20 12:19:03;;;;;;;4.00;0.82;;;20.80;1.00;;;;;;5067229;28;20044;-46
2023/05/20 12:21:30;;;;;;;3.28;0.90;;;20.80;1.00;;;;;;5075357;28;20448;-46
2023/05/20 12:24:00;;;;;;;1.95;0.82;;;20.80;1.00;;;;;;5068095;28;20553;-47
2023/05/20 12:26:28;;;;;;;2.83;0.73;;;20.80;1.00;;;;;;5068103;28;20037;-46
2023/05/20 12:28:55;;;;;;;4.35;0.85;;;20.80;1.00;;;;;;5066477;28;20062;-48
2023/05/20 12:31:23;;;;;;;2.35;1.23;;;20.80;1.00;;;;;;5068090;28;20446;-47
2023/05/20 12:33:50;;;;;;;2.75;0.88;;;20.80;1.00;;;;;;5067969;28;20411;-47
2023/05/20 12:36:18;;;;;;;3.08;1.20;;;20.80;1.00;;;;;;5067971;28;20044;-48
2023/05/20 12:38:45;;;;;;;3.92;1.15;;;20.80;1.00;;;;;;5067971;28;20060;-47
2023/05/20 12:41:12;;;;;;;3.47;1.20;;;20.80;1.00;;;;;;5067734;28;20111;-46
2023/05/20 12:43:38;;;;;;;3.55;0.60;;;20.80;1.00;;;;;;5066426;28;20049;-47
2023/05/20 12:46:05;;;;;;;6.10;1.13;;;20.80;1.00;;;;;;5067699;28;20037;-47
2023/05/20 12:48:32;;;;;;;4.22;0.90;;;20.70;1.00;;;;;;5067596;28;20049;-50
2023/05/20 12:50:59;;;;;;;4.78;0.90;;;20.80;1.00;;;;;;5054643;28;20051;-46
2023/05/20 12:53:26;;;;;;;4.30;1.23;;;20.80;1.00;;;;;;5054124;28;20041;-46
2023/05/20 12:55:53;;;;;;;1.92;0.68;;;20.70;1.00;;;;;;5054406;28;20127;-50
2023/05/20 12:58:20;;;;;;;5.43;0.80;;;20.70;1.00;;;;;;5054031;28;20071;-48
2023/05/20 13:00:46;;;;;;;3.53;0.70;;;20.70;1.00;;;;;;5054320;28;20151;-46
2023/05/20 13:03:13;;;;;;;7.40;0.80;;;20.70;1.00;;;;;;5054138;28;20037;-47
2023/05/20 13:05:41;;;;;;;7.15;1.23;;;20.70;1.00;;;;;;5045983;28;20060;-47